createdAt,value
2022-11-01T00:00:14.814Z,56.54
2022-11-01T00:01:14.831Z,56.54
2022-11-01T00:02:14.885Z,56.44
2022-11-01T00:03:14.801Z,56.54
2022-11-01T00:04:14.792Z,56.44
2022-11-01T00:05:14.782Z,56.34
2022-11-01T00:06:14.755Z,56.44
2022-11-01T00:07:14.758Z,56.44
2022-11-01T00:08:14.727Z,56.44
2022-11-01T00:09:14.736Z,56.44
2022-11-01T00:10:14.742Z,56.44
2022-11-01T00:11:14.701Z,56.44
2022-11-01T00:12:14.716Z,56.44
2022-11-01T00:13:14.702Z,56.44
2022-11-01T00:14:14.671Z,56.44
2022-11-01T00:15:14.660Z,56.44
2022-11-01T00:16:14.670Z,56.44
2022-11-01T00:17:14.654Z,56.44
2022-11-01T00:18:14.626Z,56.44
2022-11-01T00:19:14.630Z,56.44
2022-11-01T00:20:14.601Z,56.44
2022-11-01T00:21:14.597Z,56.44
2022-11-01T00:22:14.593Z,56.44
2022-11-01T00:23:14.587Z,56.54
2022-11-01T00:24:14.635Z,56.44
2022-11-01T00:25:14.567Z,56.44
2022-11-01T00:26:14.540Z,56.44
2022-11-01T00:27:14.547Z,56.44
2022-11-01T00:28:14.529Z,56.44
2022-11-01T00:29:14.513Z,56.34
2022-11-01T00:30:14.560Z,56.44
2022-11-01T00:31:14.495Z,56.44
2022-11-01T00:32:14.487Z,56.44
2022-11-01T00:33:15.472Z,56.44
2022-11-01T00:34:14.454Z,56.44
2022-11-01T00:35:14.464Z,56.44
2022-11-01T00:36:14.434Z,56.44
2022-11-01T00:37:14.639Z,56.44
2022-11-01T00:38:14.424Z,56.34
2022-11-01T00:39:14.409Z,56.34
2022-11-01T00:40:15.203Z,56.34
2022-11-01T00:41:14.398Z,56.34
2022-11-01T00:42:14.368Z,56.34
2022-11-01T00:43:14.409Z,56.34
2022-11-01T00:44:14.360Z,56.34
2022-11-01T00:45:14.397Z,56.34
2022-11-01T00:46:14.356Z,56.34
2022-11-01T00:47:14.333Z,56.34
2022-11-01T00:48:14.305Z,56.34
2022-11-01T00:49:14.313Z,56.34
2022-11-01T00:50:14.328Z,56.34
2022-11-01T00:51:14.280Z,56.34
2022-11-01T00:52:14.278Z,56.24
2022-11-01T00:53:14.272Z,56.34
2022-11-01T00:54:14.242Z,56.24
2022-11-01T00:55:14.279Z,56.24
2022-11-01T00:56:14.227Z,56.34
2022-11-01T00:57:14.219Z,56.24
2022-11-01T00:58:14.229Z,56.24
2022-11-01T00:59:14.203Z,56.24
2022-11-01T01:00:14.193Z,56.24
2022-11-01T01:01:14.294Z,56.24
2022-11-01T01:02:14.334Z,56.24
2022-11-01T01:03:14.151Z,56.24
2022-11-01T01:04:14.152Z,56.24
2022-11-01T01:05:14.156Z,56.24
2022-11-01T01:06:14.125Z,56.24
2022-11-01T01:07:14.140Z,56.24
2022-11-01T01:08:14.110Z,56.24
2022-11-01T01:09:14.087Z,56.24
2022-11-01T01:10:14.085Z,56.24
2022-11-01T01:11:14.093Z,56.24
2022-11-01T01:12:14.085Z,56.14
2022-11-01T01:13:14.061Z,56.24
2022-11-01T01:14:14.040Z,56.24
2022-11-01T01:15:14.038Z,56.24
2022-11-01T01:16:14.010Z,56.24
2022-11-01T01:17:14.007Z,56.24
2022-11-01T01:18:14.015Z,56.24
2022-11-01T01:19:14.137Z,56.24
2022-11-01T01:20:13.968Z,56.24
2022-11-01T01:21:13.963Z,56.24
2022-11-01T01:22:13.968Z,56.24
2022-11-01T01:23:14.207Z,56.24
2022-11-01T01:24:13.960Z,56.24
2022-11-01T01:25:13.935Z,56.24
2022-11-01T01:26:13.905Z,56.24
2022-11-01T01:27:13.913Z,56.24
2022-11-01T01:28:13.894Z,56.24
2022-11-01T01:29:13.903Z,56.14
2022-11-01T01:30:13.929Z,56.24
2022-11-01T01:31:13.882Z,56.14
2022-11-01T01:32:13.858Z,56.24
2022-11-01T01:33:13.870Z,56.14
2022-11-01T01:34:13.827Z,56.24
2022-11-01T01:35:13.830Z,56.24
2022-11-01T01:36:13.797Z,56.24
2022-11-01T01:37:13.800Z,56.24
2022-11-01T01:38:13.794Z,56.14
2022-11-01T01:39:13.772Z,56.14
2022-11-01T01:40:13.771Z,56.24
2022-11-01T01:41:13.767Z,56.14
2022-11-01T01:42:13.738Z,56.24
2022-11-01T01:43:13.743Z,56.24
2022-11-01T01:44:13.715Z,56.24
2022-11-01T01:45:13.709Z,56.24
2022-11-01T01:46:13.708Z,56.24
2022-11-01T01:47:13.765Z,56.24
2022-11-01T01:48:13.712Z,56.24
2022-11-01T01:49:13.679Z,56.14
2022-11-01T01:50:13.671Z,56.24
2022-11-01T01:51:13.653Z,56.24
2022-11-01T01:52:13.643Z,56.27
2022-11-01T01:53:13.638Z,56.24
2022-11-01T01:54:13.615Z,56.17
2022-11-01T01:55:13.681Z,56.24
2022-11-01T01:56:13.592Z,56.17
2022-11-01T01:57:13.584Z,56.24
2022-11-01T01:58:13.583Z,56.24
2022-11-01T01:59:13.561Z,56.27
2022-11-01T02:00:13.624Z,56.24
2022-11-01T02:01:13.677Z,56.14
2022-11-01T02:02:13.607Z,56.14
2022-11-01T02:03:13.543Z,56.27
2022-11-01T02:04:13.516Z,56.14
2022-11-01T02:05:13.500Z,56.17
2022-11-01T02:06:13.585Z,56.14
2022-11-01T02:07:13.492Z,56.14
2022-11-01T02:08:13.477Z,56.14
2022-11-01T02:09:13.458Z,56.14
2022-11-01T02:10:13.462Z,56.14
2022-11-01T02:11:13.457Z,56.04
2022-11-01T02:12:13.435Z,56.14
2022-11-01T02:13:13.425Z,56.14
2022-11-01T02:14:13.397Z,56.14
2022-11-01T02:15:13.407Z,56.04
2022-11-01T02:16:13.377Z,56.04
2022-11-01T02:17:13.377Z,56.14
2022-11-01T02:18:13.371Z,56.04
2022-11-01T02:19:13.398Z,56.04
2022-11-01T02:20:13.368Z,56.14
2022-11-01T02:21:13.341Z,56.14
2022-11-01T02:22:13.312Z,56.14
2022-11-01T02:23:13.311Z,56.04
2022-11-01T02:24:13.308Z,56.04
2022-11-01T02:25:13.299Z,56.04
2022-11-01T02:26:14.070Z,56.04
2022-11-01T02:27:13.285Z,56.04
2022-11-01T02:28:13.250Z,56.04
2022-11-01T02:29:13.608Z,56.14
2022-11-01T02:30:13.245Z,56.04
2022-11-01T02:31:13.226Z,56.04
2022-11-01T02:32:13.220Z,56.04
2022-11-01T02:33:13.229Z,56.04
2022-11-01T02:34:13.200Z,56.04
2022-11-01T02:35:13.196Z,56.14
2022-11-01T02:36:13.165Z,56.17
2022-11-01T02:37:13.159Z,56.17
2022-11-01T02:38:13.158Z,56.14
2022-11-01T02:40:13.140Z,56.17
2022-11-01T02:41:13.133Z,56.07
2022-11-01T02:42:13.101Z,56.07
2022-11-01T02:43:13.113Z,56.04
2022-11-01T02:44:13.586Z,56.17
2022-11-01T02:45:13.078Z,56.04
2022-11-01T02:46:13.073Z,56.07
2022-11-01T02:47:13.055Z,56.17
2022-11-01T02:48:13.051Z,56.07
2022-11-01T02:49:13.148Z,56.07
2022-11-01T02:50:13.022Z,56.04
2022-11-01T02:51:13.041Z,56.17
2022-11-01T02:52:12.994Z,56.04
2022-11-01T02:53:13.008Z,56.07
2022-11-01T02:54:12.988Z,56.07
2022-11-01T02:55:12.983Z,56.07
2022-11-01T02:56:12.955Z,56.04
2022-11-01T02:57:12.948Z,56.07
2022-11-01T02:58:12.967Z,56.07
2022-11-01T02:59:12.927Z,56.04
2022-11-01T03:00:12.925Z,56.07
2022-11-01T03:01:13.039Z,56.07
2022-11-01T03:02:12.943Z,56.07
2022-11-01T03:03:12.913Z,56.04
2022-11-01T03:04:12.874Z,56.07
2022-11-01T03:05:12.868Z,56.07
2022-11-01T03:06:12.863Z,56.04
2022-11-01T03:07:12.853Z,56.07
2022-11-01T03:08:12.839Z,56.07
2022-11-01T03:09:13.052Z,56.07
2022-11-01T03:10:12.805Z,56.07
2022-11-01T03:11:12.810Z,56.07
2022-11-01T03:12:12.815Z,56.07
2022-11-01T03:13:12.804Z,56.07
2022-11-01T03:14:12.791Z,55.97
2022-11-01T03:15:12.776Z,56.07
2022-11-01T03:16:12.744Z,56.07
2022-11-01T03:17:12.737Z,55.97
2022-11-01T03:18:13.184Z,55.97
2022-11-01T03:19:12.719Z,56.07
2022-11-01T03:20:12.716Z,56.04
2022-11-01T03:21:13.183Z,55.94
2022-11-01T03:22:12.679Z,55.94
2022-11-01T03:23:12.689Z,55.97
2022-11-01T03:24:12.669Z,55.97
2022-11-01T03:25:12.683Z,55.94
2022-11-01T03:26:12.660Z,55.94
2022-11-01T03:27:13.388Z,55.97
2022-11-01T03:28:12.617Z,55.97
2022-11-01T03:29:12.611Z,55.94
2022-11-01T03:30:13.866Z,55.97
2022-11-01T03:31:12.592Z,55.97
2022-11-01T03:32:12.590Z,55.97
2022-11-01T03:33:13.561Z,55.97
2022-11-01T03:34:12.566Z,55.97
2022-11-01T03:35:12.564Z,55.97
2022-11-01T03:36:14.671Z,55.97
2022-11-01T03:37:12.525Z,55.94
2022-11-01T03:38:12.545Z,55.97
2022-11-01T03:39:12.507Z,55.97
2022-11-01T03:40:12.501Z,55.94
2022-11-01T03:41:12.500Z,55.97
2022-11-01T03:42:12.467Z,55.97
2022-11-01T03:43:12.493Z,55.97
2022-11-01T03:44:13.338Z,55.97
2022-11-01T03:45:12.527Z,55.97
2022-11-01T03:46:13.233Z,55.97
2022-11-01T03:47:12.418Z,55.97
2022-11-01T03:48:12.436Z,55.97
2022-11-01T03:49:12.424Z,55.97
2022-11-01T03:50:12.391Z,55.97
2022-11-01T03:51:12.388Z,55.97
2022-11-01T03:52:12.380Z,55.97
2022-11-01T03:53:12.419Z,55.97
2022-11-01T03:54:12.379Z,55.87
2022-11-01T03:55:12.377Z,55.77
2022-11-01T03:56:12.376Z,55.87
2022-11-01T03:57:12.321Z,55.87
2022-11-01T03:58:12.303Z,55.97
2022-11-01T03:59:12.371Z,55.97
2022-11-01T04:00:12.310Z,55.87
2022-11-01T04:01:12.344Z,55.87
2022-11-01T04:02:12.286Z,55.97
2022-11-01T04:03:12.259Z,55.87
2022-11-01T04:04:12.238Z,55.87
2022-11-01T04:05:12.265Z,55.97
2022-11-01T04:06:12.247Z,55.87
2022-11-01T04:07:12.202Z,55.87
2022-11-01T04:08:12.213Z,55.87
2022-11-01T04:09:12.196Z,55.87
2022-11-01T04:10:12.175Z,55.87
2022-11-01T04:11:12.825Z,55.87
2022-11-01T04:12:12.155Z,55.87
2022-11-01T04:13:12.147Z,55.87
2022-11-01T04:14:12.175Z,55.87
2022-11-01T04:15:12.163Z,55.87
2022-11-01T04:16:12.121Z,55.87
2022-11-01T04:17:12.525Z,55.87
2022-11-01T04:18:12.105Z,55.87
2022-11-01T04:19:12.075Z,55.87
2022-11-01T04:20:12.083Z,55.87
2022-11-01T04:21:12.069Z,55.77
2022-11-01T04:22:12.051Z,55.87
2022-11-01T04:23:12.085Z,55.77
2022-11-01T04:24:12.099Z,55.77
2022-11-01T04:25:12.014Z,55.77
2022-11-01T04:26:12.024Z,55.77
2022-11-01T04:27:12.187Z,55.77
2022-11-01T04:28:12.022Z,55.77
2022-11-01T04:29:11.983Z,55.77
2022-11-01T04:30:11.965Z,55.77
2022-11-01T04:31:11.950Z,55.77
2022-11-01T04:32:13.750Z,55.87
2022-11-01T04:33:11.943Z,55.87
2022-11-01T04:34:11.927Z,55.87
2022-11-01T04:35:11.928Z,55.77
2022-11-01T04:36:11.901Z,55.87
2022-11-01T04:37:11.903Z,55.87
2022-11-01T04:38:11.905Z,55.87
2022-11-01T04:39:11.884Z,55.77
2022-11-01T04:40:11.874Z,55.87
2022-11-01T04:41:11.857Z,55.87
2022-11-01T04:42:11.838Z,55.87
2022-11-01T04:43:11.835Z,55.87
2022-11-01T04:44:12.545Z,55.87
2022-11-01T04:45:11.806Z,55.77
2022-11-01T04:46:11.809Z,55.87
2022-11-01T04:47:11.787Z,55.87
2022-11-01T04:48:11.797Z,55.87
2022-11-01T04:49:11.771Z,55.87
2022-11-01T04:50:11.771Z,55.87
2022-11-01T04:51:11.753Z,55.87
2022-11-01T04:52:11.733Z,55.87
2022-11-01T04:53:11.716Z,55.87
2022-11-01T04:54:12.422Z,55.77
2022-11-01T04:55:11.698Z,55.87
2022-11-01T04:56:11.706Z,55.87
2022-11-01T04:57:11.715Z,55.87
2022-11-01T04:58:11.676Z,55.87
2022-11-01T04:59:11.673Z,55.87
2022-11-01T05:00:11.649Z,55.77
2022-11-01T05:01:11.782Z,55.87
2022-11-01T05:02:11.695Z,55.77
2022-11-01T05:03:11.625Z,55.87
2022-11-01T05:04:11.608Z,55.87
2022-11-01T05:05:11.594Z,55.77
2022-11-01T05:06:11.651Z,55.77
2022-11-01T05:07:12.677Z,55.77
2022-11-01T05:08:11.579Z,55.77
2022-11-01T05:09:11.562Z,55.77
2022-11-01T05:10:11.541Z,55.77
2022-11-01T05:11:11.887Z,55.77
2022-11-01T05:12:11.557Z,55.77
2022-11-01T05:13:11.830Z,55.77
2022-11-01T05:14:11.516Z,55.77
2022-11-01T05:15:11.489Z,55.77
2022-11-01T05:16:19.336Z,55.77
2022-11-01T05:17:11.487Z,55.77
2022-11-01T05:18:11.539Z,55.77
2022-11-01T05:19:11.443Z,55.77
2022-11-01T05:20:11.464Z,55.77
2022-11-01T05:21:11.442Z,55.77
2022-11-01T05:22:11.445Z,55.77
2022-11-01T05:23:11.419Z,55.77
2022-11-01T05:24:11.393Z,55.77
2022-11-01T05:25:11.380Z,55.77
2022-11-01T05:26:12.627Z,55.77
2022-11-01T05:27:11.356Z,55.77
2022-11-01T05:28:11.370Z,55.77
2022-11-01T05:29:24.344Z,55.77
2022-11-01T05:30:11.342Z,55.77
2022-11-01T05:31:12.114Z,55.77
2022-11-01T05:32:11.374Z,55.77
2022-11-01T05:33:11.299Z,55.77
2022-11-01T05:34:11.313Z,55.77
2022-11-01T05:35:11.287Z,55.77
2022-11-01T05:36:11.289Z,55.77
2022-11-01T05:37:11.254Z,55.77
2022-11-01T05:38:11.259Z,55.77
2022-11-01T05:39:11.229Z,55.77
2022-11-01T05:40:11.246Z,55.77
2022-11-01T05:41:11.223Z,55.77
2022-11-01T05:42:11.213Z,55.77
2022-11-01T05:43:11.253Z,55.77
2022-11-01T05:44:11.206Z,55.77
2022-11-01T05:45:11.191Z,55.77
2022-11-01T05:46:11.216Z,55.77
2022-11-01T05:47:14.624Z,55.67
2022-11-01T05:48:11.168Z,55.77
2022-11-01T05:49:11.138Z,55.77
2022-11-01T05:50:11.121Z,55.77
2022-11-01T05:51:11.135Z,55.77
2022-11-01T05:52:11.103Z,55.77
2022-11-01T05:53:11.108Z,55.67
2022-11-01T05:54:11.103Z,55.77
2022-11-01T05:55:11.065Z,55.77
2022-11-01T05:56:11.097Z,55.67
2022-11-01T05:57:11.070Z,55.77
2022-11-01T05:58:11.033Z,55.67
2022-11-01T05:59:11.041Z,55.67
2022-11-01T06:00:11.020Z,55.77
2022-11-01T06:01:11.004Z,55.77
2022-11-01T06:02:11.096Z,55.47
2022-11-01T06:03:10.991Z,55.38
2022-11-01T06:04:10.989Z,55.38
2022-11-01T06:05:10.983Z,55.27
2022-11-01T06:06:10.964Z,55.18
2022-11-01T06:07:10.949Z,55.08
2022-11-01T06:08:10.942Z,55.27
2022-11-01T06:09:10.941Z,55.38
2022-11-01T06:10:10.921Z,55.27
2022-11-01T06:11:10.905Z,55.18
2022-11-01T06:12:10.894Z,55.08
2022-11-01T06:13:10.886Z,55.18
2022-11-01T06:14:10.898Z,55.08
2022-11-01T06:15:10.855Z,55.18
2022-11-01T06:16:10.872Z,55.18
2022-11-01T06:17:10.844Z,55.08
2022-11-01T06:18:10.825Z,55.18
2022-11-01T06:19:10.834Z,55.18
2022-11-01T06:20:11.551Z,55.27
2022-11-01T06:21:10.922Z,55.18
2022-11-01T06:22:10.799Z,55.27
2022-11-01T06:23:10.820Z,55.18
2022-11-01T06:24:11.441Z,55.27
2022-11-01T06:25:10.754Z,55.27
2022-11-01T06:26:10.760Z,55.27
2022-11-01T06:27:12.802Z,55.27
2022-11-01T06:28:10.733Z,55.18
2022-11-01T06:29:10.716Z,55.18
2022-11-01T06:30:10.756Z,55.18
2022-11-01T06:31:11.218Z,55.18
2022-11-01T06:32:10.690Z,55.18
2022-11-01T06:33:10.664Z,55.18
2022-11-01T06:34:10.670Z,55.08
2022-11-01T06:35:10.641Z,55.18
2022-11-01T06:36:11.505Z,55.18
2022-11-01T06:37:10.647Z,55.27
2022-11-01T06:38:10.614Z,55.18
2022-11-01T06:39:11.031Z,55.08
2022-11-01T06:40:10.604Z,54.88
2022-11-01T06:41:10.604Z,54.88
2022-11-01T06:42:10.581Z,54.78
2022-11-01T06:43:10.573Z,54.68
2022-11-01T06:44:10.549Z,54.80
2022-11-01T06:45:10.539Z,54.80
2022-11-01T06:46:10.542Z,54.71
2022-11-01T06:47:10.530Z,54.90
2022-11-01T06:48:10.520Z,55.00
2022-11-01T06:49:14.786Z,55.08
2022-11-01T06:50:10.505Z,55.08
2022-11-01T06:51:10.485Z,55.08
2022-11-01T06:52:10.465Z,54.88
2022-11-01T06:53:10.449Z,54.78
2022-11-01T06:54:10.459Z,54.68
2022-11-01T06:55:10.451Z,54.68
2022-11-01T06:56:10.437Z,54.68
2022-11-01T06:57:10.425Z,54.68
2022-11-01T06:58:10.420Z,54.58
2022-11-01T06:59:10.402Z,54.58
2022-11-01T07:00:10.394Z,54.48
2022-11-01T07:01:10.485Z,54.48
2022-11-01T07:02:14.159Z,54.48
2022-11-01T07:03:10.344Z,54.48
2022-11-01T07:05:10.335Z,54.41
2022-11-01T07:06:10.323Z,54.50
2022-11-01T07:07:10.323Z,54.41
2022-11-01T07:08:10.296Z,54.41
2022-11-01T07:09:10.317Z,54.41
2022-11-01T07:10:10.416Z,54.50
2022-11-01T07:11:10.808Z,54.41
2022-11-01T07:12:10.305Z,54.50
2022-11-01T07:13:18.994Z,54.50
2022-11-01T07:14:10.275Z,54.50
2022-11-01T07:15:10.258Z,54.50
2022-11-01T07:16:10.230Z,54.50
2022-11-01T07:17:10.222Z,54.50
2022-11-01T07:18:10.195Z,54.60
2022-11-01T07:19:10.275Z,54.90
2022-11-01T07:20:10.170Z,54.80
2022-11-01T07:21:10.165Z,54.71
2022-11-01T07:22:10.162Z,54.71
2022-11-01T07:23:10.145Z,54.58
2022-11-01T07:24:10.143Z,54.58
2022-11-01T07:25:10.138Z,54.58
2022-11-01T07:26:10.109Z,54.58
2022-11-01T07:27:10.089Z,54.78
2022-11-01T07:28:10.129Z,54.78
2022-11-01T07:29:10.118Z,54.78
2022-11-01T07:30:10.062Z,54.68
2022-11-01T07:31:10.068Z,54.80
2022-11-01T07:32:10.042Z,54.80
2022-11-01T07:33:10.031Z,54.68
2022-11-01T07:34:10.035Z,54.80
2022-11-01T07:35:10.006Z,54.90
2022-11-01T07:36:10.029Z,54.90
2022-11-01T07:37:10.000Z,54.90
2022-11-01T07:38:13.020Z,54.90
2022-11-01T07:39:10.174Z,54.90
2022-11-01T07:40:09.957Z,54.90
2022-11-01T07:41:09.963Z,54.90
2022-11-01T07:42:09.957Z,55.00
2022-11-01T07:43:09.954Z,55.00
2022-11-01T07:44:09.914Z,55.10
2022-11-01T07:45:12.995Z,55.00
2022-11-01T07:46:09.919Z,55.00
2022-11-01T07:47:09.877Z,55.00
2022-11-01T07:48:09.903Z,55.10
2022-11-01T07:49:10.563Z,55.30
2022-11-01T07:50:09.850Z,55.20
2022-11-01T07:51:09.862Z,55.30
2022-11-01T07:52:09.830Z,55.30
2022-11-01T07:53:09.818Z,55.30
2022-11-01T07:54:10.334Z,55.20
2022-11-01T07:55:09.808Z,55.10
2022-11-01T07:56:09.803Z,55.20
2022-11-01T07:57:09.797Z,55.30
2022-11-01T07:58:09.766Z,55.30
2022-11-01T07:59:09.763Z,55.20
2022-11-01T08:00:09.756Z,55.20
2022-11-01T08:01:09.885Z,55.20
2022-11-01T08:02:09.787Z,55.30
2022-11-01T08:03:09.740Z,55.20
2022-11-01T08:04:09.697Z,55.30
2022-11-01T08:05:10.415Z,55.20
2022-11-01T08:06:09.726Z,55.20
2022-11-01T08:07:09.672Z,55.20
2022-11-01T08:08:09.669Z,55.30
2022-11-01T08:09:09.663Z,55.30
2022-11-01T08:10:09.663Z,55.30
2022-11-01T08:11:09.671Z,55.20
2022-11-01T08:12:09.617Z,55.20
2022-11-01T08:13:09.625Z,55.30
2022-11-01T08:14:12.193Z,55.30
2022-11-01T08:15:09.601Z,55.30
2022-11-01T08:16:10.764Z,55.30
2022-11-01T08:17:09.570Z,55.40
2022-11-01T08:18:09.563Z,55.40
2022-11-01T08:19:09.543Z,55.40
2022-11-01T08:20:09.544Z,55.40
2022-11-01T08:21:09.766Z,56.00
2022-11-01T08:22:09.513Z,56.10
2022-11-01T08:23:09.533Z,55.90
2022-11-01T08:24:09.487Z,55.70
2022-11-01T08:25:09.481Z,55.60
2022-11-01T08:26:09.479Z,55.70
2022-11-01T08:27:09.473Z,55.90
2022-11-01T08:28:09.460Z,55.82
2022-11-01T08:29:09.453Z,55.82
2022-11-01T08:30:09.421Z,55.82
2022-11-01T08:31:09.416Z,55.82
2022-11-01T08:32:09.420Z,55.73
2022-11-01T08:33:09.410Z,55.73
2022-11-01T08:34:14.473Z,55.73
2022-11-01T08:35:09.397Z,55.73
2022-11-01T08:36:09.359Z,55.63
2022-11-01T08:37:09.357Z,55.63
2022-11-01T08:38:09.352Z,55.53
2022-11-01T08:40:09.334Z,55.50
2022-11-01T08:41:09.340Z,55.53
2022-11-01T08:42:09.298Z,55.53
2022-11-01T08:43:09.308Z,55.53
2022-11-01T08:44:09.274Z,55.60
2022-11-01T08:45:09.277Z,55.50
2022-11-01T08:46:09.302Z,55.60
2022-11-01T08:47:09.263Z,55.50
2022-11-01T08:48:09.241Z,55.50
2022-11-01T08:49:09.226Z,55.50
2022-11-01T08:50:11.358Z,55.50
2022-11-01T08:51:09.207Z,55.53
2022-11-01T08:52:09.204Z,55.53
2022-11-01T08:53:09.209Z,55.53
2022-11-01T08:54:09.192Z,55.60
2022-11-01T08:55:09.187Z,55.70
2022-11-01T08:56:09.712Z,55.73
2022-11-01T08:57:09.144Z,55.70
2022-11-01T08:58:09.143Z,55.63
2022-11-01T08:59:09.124Z,55.60
2022-11-01T09:00:09.124Z,55.60
2022-11-01T09:01:09.365Z,55.50
2022-11-01T09:02:09.207Z,55.50
2022-11-01T09:03:09.107Z,55.50
2022-11-01T09:04:09.076Z,55.50
2022-11-01T09:05:09.057Z,55.70
2022-11-01T09:06:09.069Z,55.80
2022-11-01T09:07:09.044Z,55.90
2022-11-01T09:08:09.861Z,55.90
2022-11-01T09:09:09.248Z,56.00
2022-11-01T09:10:09.055Z,55.90
2022-11-01T09:11:09.018Z,56.00
2022-11-01T09:12:14.097Z,55.90
2022-11-01T09:13:09.058Z,55.90
2022-11-01T09:14:08.974Z,55.80
2022-11-01T09:15:08.961Z,55.70
2022-11-01T09:16:08.979Z,55.70
2022-11-01T09:17:08.947Z,55.70
2022-11-01T09:18:08.918Z,55.70
2022-11-01T09:19:08.911Z,55.80
2022-11-01T09:20:08.916Z,55.90
2022-11-01T09:21:08.903Z,56.00
2022-11-01T09:22:09.043Z,55.67
2022-11-01T09:23:08.916Z,55.47
2022-11-01T09:24:08.880Z,55.47
2022-11-01T09:25:08.851Z,55.38
2022-11-01T09:26:08.847Z,55.40
2022-11-01T09:27:08.834Z,55.30
2022-11-01T09:28:09.438Z,55.30
2022-11-01T09:29:08.818Z,55.40
2022-11-01T09:30:08.820Z,55.20
2022-11-01T09:31:19.999Z,55.10
2022-11-01T09:32:08.799Z,55.10
2022-11-01T09:33:08.786Z,55.10
2022-11-01T09:34:08.866Z,55.20
2022-11-01T09:35:08.759Z,55.20
2022-11-01T09:36:08.733Z,55.20
2022-11-01T09:37:08.726Z,55.33
2022-11-01T09:38:09.181Z,55.43
2022-11-01T09:39:08.701Z,55.43
2022-11-01T09:40:08.709Z,55.53
2022-11-01T09:41:08.692Z,55.63
2022-11-01T09:42:08.685Z,55.63
2022-11-01T09:43:08.956Z,55.63
2022-11-01T09:44:08.681Z,55.63
2022-11-01T09:45:08.637Z,55.53
2022-11-01T09:46:08.739Z,55.63
2022-11-01T09:47:08.741Z,55.63
2022-11-01T09:48:09.314Z,55.63
2022-11-01T09:49:08.627Z,55.63
2022-11-01T09:50:08.594Z,55.53
2022-11-01T09:51:08.577Z,55.53
2022-11-01T09:52:08.571Z,55.43
2022-11-01T09:53:08.570Z,55.33
2022-11-01T09:54:08.558Z,55.53
2022-11-01T09:55:08.548Z,55.53
2022-11-01T09:56:08.520Z,55.63
2022-11-01T09:57:08.510Z,55.63
2022-11-01T09:58:08.516Z,55.63
2022-11-01T09:59:09.038Z,55.53
2022-11-01T10:00:08.511Z,55.53
2022-11-01T10:01:08.862Z,55.43
2022-11-01T10:02:10.035Z,55.53
2022-11-01T10:03:08.537Z,55.43
2022-11-01T10:04:08.443Z,55.33
2022-11-01T10:05:08.428Z,55.23
2022-11-01T10:06:08.424Z,55.13
2022-11-01T10:07:08.408Z,55.03
2022-11-01T10:08:08.417Z,55.03
2022-11-01T10:09:08.398Z,55.03
2022-11-01T10:10:08.388Z,54.90
2022-11-01T10:11:08.757Z,54.90
2022-11-01T10:12:08.347Z,55.00
2022-11-01T10:13:08.340Z,55.30
2022-11-01T10:14:08.341Z,55.50
2022-11-01T10:15:08.322Z,55.70
2022-11-01T10:16:08.318Z,55.80
2022-11-01T10:17:08.314Z,55.80
2022-11-01T10:18:08.604Z,55.90
2022-11-01T10:19:08.290Z,56.00
2022-11-01T10:20:08.293Z,56.20
2022-11-01T10:21:08.333Z,56.20
2022-11-01T10:22:08.253Z,56.20
2022-11-01T10:23:08.256Z,56.37
2022-11-01T10:24:08.222Z,56.37
2022-11-01T10:25:08.217Z,56.37
2022-11-01T10:26:08.214Z,56.37
2022-11-01T10:27:08.191Z,56.37
2022-11-01T10:28:08.284Z,56.47
2022-11-01T10:29:08.275Z,56.47
2022-11-01T10:30:08.155Z,56.57
2022-11-01T10:31:08.172Z,56.57
2022-11-01T10:32:08.141Z,56.54
2022-11-01T10:33:08.131Z,56.54
2022-11-01T10:34:08.119Z,56.64
2022-11-01T10:35:08.157Z,56.74
2022-11-01T10:36:08.305Z,56.64
2022-11-01T10:37:08.129Z,56.74
2022-11-01T10:38:25.093Z,56.64
2022-11-01T10:39:52.371Z,56.64
2022-11-01T10:40:09.722Z,56.64
2022-11-01T10:41:08.058Z,56.74
2022-11-01T10:42:08.062Z,56.84
2022-11-01T10:43:08.059Z,56.94
2022-11-01T10:44:08.006Z,56.94
2022-11-01T10:45:08.003Z,56.94
2022-11-01T10:46:07.999Z,56.91
2022-11-01T10:47:07.988Z,56.91
2022-11-01T10:48:08.036Z,57.01
2022-11-01T10:49:07.975Z,57.21
2022-11-01T10:50:08.098Z,57.21
2022-11-01T10:51:07.954Z,57.21
2022-11-01T10:52:07.922Z,57.21
2022-11-01T10:53:07.996Z,57.21
2022-11-01T10:54:07.917Z,57.21
2022-11-01T10:55:07.910Z,57.11
2022-11-01T10:56:07.898Z,57.11
2022-11-01T10:57:07.884Z,57.21
2022-11-01T10:58:07.877Z,57.31
2022-11-01T10:59:07.854Z,57.31
2022-11-01T11:00:07.858Z,57.31
2022-11-01T11:01:08.191Z,57.41
2022-11-01T11:02:08.103Z,57.41
2022-11-01T11:03:07.834Z,57.41
2022-11-01T11:04:07.866Z,57.51
2022-11-01T11:05:07.795Z,57.70
2022-11-01T11:06:07.789Z,57.68
2022-11-01T11:07:07.770Z,57.68
2022-11-01T11:08:07.807Z,57.68
2022-11-01T11:09:07.786Z,57.78
2022-11-01T11:10:07.852Z,57.98
2022-11-01T11:11:07.893Z,57.98
2022-11-01T11:12:08.109Z,58.07
2022-11-01T11:13:07.884Z,58.07
2022-11-01T11:14:07.911Z,58.07
2022-11-01T11:15:07.754Z,58.07
2022-11-01T11:16:07.916Z,58.07
2022-11-01T11:17:07.695Z,58.07
2022-11-01T11:18:07.653Z,58.17
2022-11-01T11:19:08.117Z,58.17
2022-11-01T11:20:07.855Z,57.78
2022-11-01T11:21:08.046Z,55.27
2022-11-01T11:22:07.977Z,54.60
2022-11-01T11:23:07.627Z,54.80
2022-11-01T11:24:07.631Z,55.00
2022-11-01T11:25:07.593Z,55.19
2022-11-01T11:26:07.627Z,55.19
2022-11-01T11:27:07.560Z,55.40
2022-11-01T11:28:07.556Z,55.40
2022-11-01T11:29:07.560Z,55.62
2022-11-01T11:30:07.546Z,55.72
2022-11-01T11:31:07.517Z,55.82
2022-11-01T11:32:07.672Z,55.91
2022-11-01T11:33:07.497Z,55.91
2022-11-01T11:34:07.499Z,55.91
2022-11-01T11:35:07.492Z,55.91
2022-11-01T11:36:08.749Z,55.94
2022-11-01T11:37:07.465Z,55.85
2022-11-01T11:38:07.644Z,55.85
2022-11-01T11:39:07.454Z,55.85
2022-11-01T11:40:07.414Z,55.85
2022-11-01T11:41:07.411Z,55.85
2022-11-01T11:42:07.580Z,55.74
2022-11-01T11:43:07.420Z,55.65
2022-11-01T11:44:07.393Z,55.65
2022-11-01T11:45:07.375Z,55.65
2022-11-01T11:46:07.503Z,55.74
2022-11-01T11:47:07.609Z,55.74
2022-11-01T11:48:07.348Z,55.85
2022-11-01T11:49:07.434Z,55.94
2022-11-01T11:50:07.332Z,55.74
2022-11-01T11:51:07.321Z,55.65
2022-11-01T11:52:07.704Z,55.32
2022-11-01T11:53:07.285Z,55.42
2022-11-01T11:54:07.283Z,55.32
2022-11-01T11:55:07.263Z,55.35
2022-11-01T11:56:08.664Z,55.35
2022-11-01T11:57:08.465Z,55.25
2022-11-01T11:58:07.226Z,55.25
2022-11-01T11:59:08.627Z,55.25
2022-11-01T12:00:07.223Z,55.15
2022-11-01T12:01:07.288Z,55.25
2022-11-01T12:02:09.784Z,55.25
2022-11-01T12:03:07.424Z,55.22
2022-11-01T12:04:07.175Z,55.15
2022-11-01T12:05:07.169Z,55.15
2022-11-01T12:06:07.153Z,55.15
2022-11-01T12:07:07.178Z,55.15
2022-11-01T12:08:07.177Z,55.15
2022-11-01T12:09:07.130Z,55.15
2022-11-01T12:10:07.120Z,55.15
2022-11-01T12:11:07.112Z,55.15
2022-11-01T12:12:07.082Z,55.25
2022-11-01T12:13:07.073Z,55.35
2022-11-01T12:14:07.147Z,55.05
2022-11-01T12:15:07.057Z,54.55
2022-11-01T12:16:07.622Z,53.96
2022-11-01T12:17:07.062Z,53.46
2022-11-01T12:18:10.293Z,53.26
2022-11-01T12:19:07.031Z,53.06
2022-11-01T12:20:07.009Z,52.76
2022-11-01T12:21:06.997Z,52.76
2022-11-01T12:22:06.995Z,52.86
2022-11-01T12:23:06.995Z,53.46
2022-11-01T12:24:06.955Z,53.96
2022-11-01T12:25:06.942Z,54.16
2022-11-01T12:26:06.949Z,54.25
2022-11-01T12:27:06.922Z,54.25
2022-11-01T12:28:07.367Z,54.25
2022-11-01T12:29:09.082Z,54.25
2022-11-01T12:30:07.903Z,54.35
2022-11-01T12:31:07.049Z,54.35
2022-11-01T12:32:07.079Z,54.33
2022-11-01T12:33:07.357Z,54.23
2022-11-01T12:34:06.987Z,54.33
2022-11-01T12:35:07.128Z,54.33
2022-11-01T12:36:07.004Z,54.43
2022-11-01T12:37:06.903Z,54.43
2022-11-01T12:38:07.432Z,54.43
2022-11-01T12:39:11.310Z,54.43
2022-11-01T12:40:09.698Z,54.53
2022-11-01T12:41:11.988Z,54.63
2022-11-01T12:44:05.819Z,54.63
2022-11-01T12:44:14.785Z,54.63
2022-11-01T12:45:12.471Z,54.63
2022-11-01T12:46:11.903Z,54.63
2022-11-01T12:47:11.695Z,54.53
2022-11-01T12:48:15.350Z,54.53
2022-11-01T12:49:11.906Z,54.53
2022-11-01T12:50:11.180Z,54.53
2022-11-01T12:51:10.572Z,54.53
2022-11-01T12:52:10.533Z,54.53
2022-11-01T12:53:10.561Z,54.43
2022-11-01T12:54:10.528Z,54.43
2022-11-01T12:55:10.614Z,54.43
2022-11-01T12:56:10.522Z,54.63